Terminal Aerodrome Forecast
Issued by NWS

Home | Current Version | Previous Version | Graphics & Text | Print | Product List | Glossary On
Versions: 1 2 3 4 5 6 7 8 9 10 11 12 13 14 15 16 17 18 19 20 21 22 23 24 25
850
FTUS43 KLOT 251855 AAA
TAFMDW
TAF AMD
KMDW 251855Z 2519/2618 10007KT P6SM FEW060 FEW200
     FM251915 11010KT P6SM SCT060
     FM260100 15004KT P6SM FEW150
     FM261400 24007KT P6SM BKN120=

USA.gov is the U.S. government's official web portal to all federal, state and local government web resources and services.